Terminal Aerodrome Forecast
Issued by NWS

Home | Current Version | Previous Version | Text Only | Print | Product List | Glossary On
Versions: 1 2 3 4 5 6 7 8 9 10 11 12 13 14 15
000
FTUS42 KMLB 231700
TAFISM
TAF
KISM 231730Z 2318/2418 21006KT P6SM VCTS SCT040CB SCT080 BKN250
     FM240300 VRB02KT P6SM FEW005 SCT250
     FM241400 VRB03KT P6SM FEW030=

USA.gov is the U.S. government's official web portal to all federal, state and local government web resources and services.